Terminal Aerodrome Forecast
Issued by NWS

Home | Current Version | Previous Version | Text Only | Print | Product List | Glossary Off
Versions: 1 2 3 4 5 6 7 8 9 10 11 12 13 14 15

000
FTUS43 KABR 242000 AAA
TAFATY
TAF AMD
KATY 242055Z 2421/2518 23007KT 2SM BR OVC002
     FM250000 20007KT 3SM BR OVC006
     FM250600 VRB06KT 5SM BR OVC008
     FM251600 02006KT P6SM OVC010=

USA.gov is the U.S. government's official web portal to all federal, state and local government web resources and services.